Belo Horizonte, Brazil

7:25 PM BRT on July 04, 2015 (GMT -0300)
Tancredo Neves International | | Change Station
CLOSE
Current Station
Airport
Location: Belo Horizonte,
Elevation: 2713 ft
Nearby Weather Stations

Elev 2713 ft 19.64 °S, 43.97 °W | Updated 25 minutes ago

Partly Cloudy
Partly Cloudy
73 °F
Feels Like 73 °F
N
2
Wind Variable Wind from WNW

Today
High -- | Low -- °F
--% Chance of Precip.
Yesterday
High -- | Low -- °F
Precip. -- in
6:30 AM 5:29 PM
Waning Gibbous, 90% visible
Pressure 30.06 in
Visibility 6.2 miles
Clouds Few 4000 ft
Dew Point 54 °F
Humidity 50%
Rainfall 0.00 in
Snow Depth Not available.
UV 0 out of 12
Pollen Not available.
Air Quality Not available.
Flu Activity Not available.
METAR SBCF 042200Z 29002KT 9999 FEW040 23/12 Q1018

More Conditions Fewer Conditions

Pressure 30.06 in
Visibility 6.2 miles
Clouds Few 4000 ft
Dew Point 54 °F
Humidity 50%
Rainfall 0.00 in
Snow Depth Not available.
UV 0 out of 12
Pollen Not available.
Air Quality Not available.
Flu Activity Not available.
METAR SBCF 042200Z 29002KT 9999 FEW040 23/12 Q1018

More Conditions Fewer Conditions

10-Day Weather Forecast

×

Almanac

Astronomy

Jul. 04, 2015 Rise Set
Actual Time
Civil Twilight
Nautical Twilight
Astronomical Twilight
Moon
Length of Visible Light
Length of Day
Tomorrow will be .
, % of the Moon is Illuminated

Today's Extremes

Country Highs Country Lows

Community

WunderPhotos

Upload Photos

1,835,105 photos uploaded!

WunderBlogs® & News

Nearby

Air Quality

  Air Quality AQ Index Pollutant
Not available.

Snow Depth

Station Depth Elevation

Earthquake Activity

City Distance Mag. Time & Date
Minimum magnitude displayed is 2.5.

Coastal Water Temperatures

Place Temperature

Stations

Nearby Weather Stations

Station Location Temp. Windchill Dew Point Humidity Wind Precip. Elev Updated Type